Time;durP1;ratioP1;P1;durP2;ratioP2;P2;SDS_P1;SDS_P2;PMS_P1;PMS_P2;Temp;Humidity;BMP_temperature;BMP_pressure;BME280_temperature;BME280_humidity;BME280_pressure;Samples;Min_cycle;Max_cycle;Signal;HPM_P1;HPM_P2
2021/01/18 00:01:50;;;;;;;25.65;13.55;;;;;;;4.13;81.70;99626.50;4899559;29;20293;-81
2021/01/18 00:04:16;;;;;;;26.60;13.25;;;;;;;4.15;81.69;99629.97;4879192;29;20269;-80
2021/01/18 00:06:45;;;;;;;21.15;13.02;;;;;;;4.10;82.24;99623.94;4895147;29;20221;-83
2021/01/18 00:09:11;;;;;;;26.05;14.05;;;;;;;4.01;81.25;99631.34;4912482;29;20222;-83
2021/01/18 00:11:38;;;;;;;24.13;13.93;;;;;;;4.17;81.20;99629.94;4886486;29;20233;-81
2021/01/18 00:14:04;;;;;;;26.52;14.40;;;;;;;4.16;81.31;99625.53;4879861;29;20234;-80
2021/01/18 00:16:31;;;;;;;20.92;13.68;;;;;;;4.11;81.54;99623.00;4890730;29;20264;-81
2021/01/18 00:18:57;;;;;;;19.15;12.02;;;;;;;4.12;81.79;99619.41;4876547;29;21017;-82
2021/01/18 00:21:23;;;;;;;22.30;13.10;;;;;;;4.09;81.43;99621.31;4884823;29;20308;-81
2021/01/18 00:23:49;;;;;;;21.13;12.70;;;;;;;4.06;81.20;99632.06;4869789;29;20656;-83
2021/01/18 00:26:18;;;;;;;22.48;14.85;;;;;;;4.06;81.41;99619.66;4892324;29;20229;-82
2021/01/18 00:28:45;;;;;;;22.02;13.93;;;;;;;3.99;81.74;99612.75;4891857;29;20230;-81
2021/01/18 00:31:12;;;;;;;24.02;16.33;;;;;;;3.95;81.75;99616.44;4881037;29;20312;-83
2021/01/18 00:33:39;;;;;;;24.05;13.05;;;;;;;3.92;81.70;99616.53;4875591;29;20257;-83
2021/01/18 00:36:06;;;;;;;18.92;11.93;;;;;;;4.00;81.46;99611.84;4876463;29;20233;-81
2021/01/18 00:38:32;;;;;;;23.10;13.50;;;;;;;4.00;81.22;99619.84;4884278;29;20245;-82
2021/01/18 00:41:01;;;;;;;20.33;12.05;;;;;;;4.01;81.12;99616.25;4906486;29;20216;-84
2021/01/18 00:43:30;;;;;;;19.60;12.20;;;;;;;4.01;80.63;99624.25;4902120;29;20258;-82
2021/01/18 00:45:57;;;;;;;21.30;12.35;;;;;;;3.97;81.12;99627.06;4911558;29;20210;-80
2021/01/18 00:48:27;;;;;;;15.63;12.07;;;;;;;3.90;80.89;99634.34;4895249;29;20379;-80
2021/01/18 00:50:57;;;;;;;19.95;12.00;;;;;;;3.97;81.14;99635.88;4877259;29;20242;-80
2021/01/18 00:53:23;;;;;;;15.80;11.05;;;;;;;3.97;81.03;99633.22;4881715;29;20251;-82
2021/01/18 00:55:50;;;;;;;19.27;10.18;;;;;;;4.08;80.53;99625.78;4903525;29;20194;-81
2021/01/18 00:58:43;;;;;;;17.00;11.20;;;;;;;4.01;80.57;99624.25;4892539;29;20237;-82
2021/01/18 01:01:33;;;;;;;19.25;11.80;;;;;;;3.95;80.81;99631.53;4897073;29;20232;-83
2021/01/18 01:04:00;;;;;;;14.95;9.82;;;;;;;4.00;80.64;99624.28;4892224;29;20308;-82
2021/01/18 01:06:32;;;;;;;17.65;10.85;;;;;;;3.84;80.67;99631.88;4882463;29;20205;-82
2021/01/18 01:08:59;;;;;;;19.08;12.05;;;;;;;3.73;81.12;99626.00;4881553;29;20229;-84
2021/01/18 01:11:25;;;;;;;20.55;10.27;;;;;;;3.72;81.19;99624.25;4895166;29;20197;-82
2021/01/18 01:13:51;;;;;;;15.63;9.88;;;;;;;3.71;81.27;99627.84;4904846;29;20228;-82
2021/01/18 01:16:20;;;;;;;16.08;9.43;;;;;;;3.64;81.41;99631.59;4879163;29;20250;-82
2021/01/18 01:18:46;;;;;;;19.95;10.25;;;;;;;3.63;81.44;99632.53;4897530;29;20230;-82
2021/01/18 01:21:14;;;;;;;16.08;10.50;;;;;;;3.72;81.24;99637.56;4878417;29;20226;-85
2021/01/18 01:23:40;;;;;;;15.65;9.75;;;;;;;3.74;80.91;99635.75;4886677;29;20237;-84
2021/01/18 01:26:06;;;;;;;14.10;9.50;;;;;;;3.86;80.55;99632.69;4887889;29;20308;-82
2021/01/18 01:28:32;;;;;;;15.48;10.02;;;;;;;3.87;80.36;99628.25;4896070;29;20229;-84
2021/01/18 01:30:59;;;;;;;15.95;10.00;;;;;;;3.89;80.03;99632.59;4880055;29;20229;-82
2021/01/18 01:33:26;;;;;;;19.42;10.77;;;;;;;3.73;80.37;99635.78;4896017;29;20232;-83
2021/01/18 01:35:52;;;;;;;16.95;9.82;;;;;;;3.75;80.60;99631.28;4878309;29;20230;-83
2021/01/18 01:38:18;;;;;;;22.38;9.88;;;;;;;3.86;80.63;99632.69;4916270;29;20264;-82
2021/01/18 01:40:45;;;;;;;20.58;10.75;;;;;;;3.77;80.58;99632.97;4899236;29;20215;-82
2021/01/18 01:43:11;;;;;;;25.83;10.27;;;;;;;3.79;80.82;99636.44;4902901;29;20226;-84
2021/01/18 01:45:37;;;;;;;20.50;9.35;;;;;;;3.79;80.28;99641.75;4909449;29;20226;-84
2021/01/18 01:48:03;;;;;;;18.02;9.43;;;;;;;3.77;80.35;99637.41;4893878;29;20254;-83
2021/01/18 01:50:36;;;;;;;15.50;9.55;;;;;;;3.74;80.65;99642.84;4888007;29;20198;-84
2021/01/18 01:53:14;;;;;;;14.55;9.32;;;;;;;3.81;80.30;99645.28;4900316;29;20210;-84
2021/01/18 01:55:41;;;;;;;13.30;9.05;;;;;;;3.84;80.18;99653.16;4880215;29;20241;-86
2021/01/18 01:58:08;;;;;;;15.48;9.30;;;;;;;3.89;79.94;99648.56;4879685;29;20222;-85
2021/01/18 02:00:38;;;;;;;19.35;9.60;;;;;;;3.89;79.91;99651.22;4883232;29;20222;-84
2021/01/18 02:03:09;;;;;;;13.00;8.57;;;;;;;3.91;79.82;99649.38;4916663;29;20759;-85
2021/01/18 02:05:36;;;;;;;19.58;9.65;;;;;;;3.95;80.02;99650.16;4900331;29;20618;-85
2021/01/18 02:08:05;;;;;;;12.18;9.18;;;;;;;3.93;80.16;99655.50;4901110;29;20704;-85
2021/01/18 02:10:32;;;;;;;12.52;8.95;;;;;;;3.90;80.08;99654.72;4886487;29;20222;-85
2021/01/18 02:13:25;;;;;;;11.35;9.18;;;;;;;3.85;79.80;99662.00;4897167;29;20290;-85
2021/01/18 02:16:09;;;;;;;15.70;9.25;;;;;;;3.88;80.28;99661.91;4877529;29;20236;-85
2021/01/18 02:18:51;;;;;;;18.85;9.48;;;;;;;3.75;80.02;99658.75;4874404;29;20237;-85
2021/01/18 02:22:06;;;;;;;18.85;9.35;;;;;;;3.69;80.61;99661.59;4898730;29;20305;-84
2021/01/18 02:25:10;;;;;;;15.15;9.43;;;;;;;3.69;80.77;99664.25;4898646;29;20708;-86
2021/01/18 02:27:59;;;;;;;15.55;8.80;;;;;;;3.75;80.49;99674.72;4888011;29;20233;-84
2021/01/18 02:30:44;;;;;;;21.77;9.93;;;;;;;3.84;80.42;99671.75;4912918;29;20276;-83
2021/01/18 02:33:30;;;;;;;16.58;10.73;;;;;;;3.81;80.46;99681.63;4908903;29;20239;-82
2021/01/18 02:36:15;;;;;;;13.35;9.10;;;;;;;3.81;80.75;99676.31;4895187;29;20233;-82
2021/01/18 02:39:16;;;;;;;19.38;10.63;;;;;;;3.86;80.40;99675.22;4879976;29;20234;-83
2021/01/18 02:41:48;;;;;;;16.50;9.60;;;;;;;3.83;80.39;99674.47;4885147;29;20230;-82
2021/01/18 02:44:19;;;;;;;15.00;8.70;;;;;;;3.83;80.46;99672.69;4873700;29;20255;-82
2021/01/18 02:46:48;;;;;;;19.00;9.65;;;;;;;3.87;80.36;99674.34;4904167;29;20214;-83
2021/01/18 02:49:17;;;;;;;17.60;10.00;;;;;;;3.86;80.11;99674.38;4910537;29;20262;-82
2021/01/18 02:52:02;;;;;;;19.10;10.13;;;;;;;3.92;79.88;99680.38;4897910;29;20289;-83
2021/01/18 02:54:28;;;;;;;17.35;9.00;;;;;;;3.94;79.76;99683.00;4908695;29;20238;-84
2021/01/18 02:56:56;;;;;;;14.27;9.05;;;;;;;3.87;79.39;99681.44;4917721;29;20237;-86
2021/01/18 02:59:26;;;;;;;18.55;8.13;;;;;;;3.83;79.76;99670.03;4888628;29;20210;-84
2021/01/18 03:02:17;;;;;;;15.95;8.77;;;;;;;3.78;79.99;99677.25;4899883;29;20190;-84
2021/01/18 03:05:07;;;;;;;17.45;8.80;;;;;;;3.84;79.81;99682.41;4895845;29;20611;-83
2021/01/18 03:07:49;;;;;;;18.45;9.95;;;;;;;3.84;79.55;99681.56;4870994;29;20222;-83
2021/01/18 03:11:06;;;;;;;16.90;10.15;;;;;;;3.80;79.69;99686.06;4900762;29;20235;-82
2021/01/18 03:13:38;;;;;;;14.18;8.77;;;;;;;3.77;79.71;99686.16;4872739;29;20229;-83
2021/01/18 03:16:12;;;;;;;14.60;8.98;;;;;;;3.89;79.41;99691.13;4895967;29;20222;-83
2021/01/18 03:18:39;;;;;;;14.75;8.45;;;;;;;3.90;79.71;99692.84;4894644;29;20234;-83
2021/01/18 03:21:06;;;;;;;14.35;8.48;;;;;;;3.87;79.30;99685.00;4898022;29;20230;-84
2021/01/18 03:23:32;;;;;;;13.02;8.45;;;;;;;3.78;79.52;99687.06;4880246;29;20231;-85
2021/01/18 03:25:58;;;;;;;11.23;8.20;;;;;;;3.71;79.88;99691.66;4873596;29;20201;-84
2021/01/18 03:28:25;;;;;;;14.98;9.30;;;;;;;3.73;79.84;99692.47;4893978;29;20265;-84
2021/01/18 03:30:51;;;;;;;13.35;8.55;;;;;;;3.70;79.67;99694.34;4897334;29;20233;-83
2021/01/18 03:33:18;;;;;;;16.77;8.38;;;;;;;3.66;79.92;99687.41;4883795;29;20293;-84
2021/01/18 03:35:45;;;;;;;17.30;8.10;;;;;;;3.65;79.23;99675.88;4895836;29;20234;-81
2021/01/18 03:38:11;;;;;;;11.80;7.90;;;;;;;3.74;79.41;99680.94;4901277;29;20253;-83
2021/01/18 03:40:40;;;;;;;17.48;8.13;;;;;;;3.66;79.66;99684.75;4876379;29;20241;-84
2021/01/18 03:43:08;;;;;;;14.98;7.38;;;;;;;3.64;79.60;99683.91;4881824;29;20230;-85
2021/01/18 03:45:42;;;;;;;15.80;8.18;;;;;;;3.78;79.70;99684.38;4889230;29;20226;-84
2021/01/18 03:48:10;;;;;;;14.93;9.15;;;;;;;3.78;79.33;99677.25;4906258;29;20229;-85
2021/01/18 03:50:38;;;;;;;12.77;7.60;;;;;;;3.71;79.27;99680.13;4891512;29;20225;-86
2021/01/18 03:53:05;;;;;;;15.25;7.68;;;;;;;3.70;79.45;99666.00;4898778;29;20751;-86
2021/01/18 03:55:31;;;;;;;11.80;7.45;;;;;;;3.68;79.26;99670.50;4884534;29;20222;-85
2021/01/18 03:57:57;;;;;;;9.43;7.85;;;;;;;3.64;79.40;99663.50;4893723;29;20233;-86
2021/01/18 04:00:26;;;;;;;13.30;8.15;;;;;;;3.73;79.46;99663.22;4883995;29;20720;-87
2021/01/18 04:02:53;;;;;;;11.75;7.65;;;;;;;3.82;79.42;99668.28;4889409;29;20238;-85
2021/01/18 04:05:20;;;;;;;14.45;8.60;;;;;;;3.77;79.41;99664.88;4899940;29;20190;-82
2021/01/18 04:07:48;;;;;;;9.25;7.28;;;;;;;3.75;80.03;99666.72;4900859;29;20205;-81
2021/01/18 04:10:22;;;;;;;16.80;10.02;;;;;;;3.62;80.32;99662.69;4890902;29;20216;-84
2021/01/18 04:12:50;;;;;;;18.00;8.98;;;;;;;3.64;80.87;99667.94;4908752;29;20225;-83
2021/01/18 04:15:20;;;;;;;13.95;8.30;;;;;;;3.63;80.72;99668.88;4913796;29;20221;-82
2021/01/18 04:17:51;;;;;;;17.23;8.85;;;;;;;3.59;80.98;99668.09;4919067;29;20229;-84
2021/01/18 04:20:18;;;;;;;17.00;9.10;;;;;;;3.57;80.79;99671.69;4910467;29;20288;-84
2021/01/18 04:22:50;;;;;;;17.98;10.90;;;;;;;3.48;81.09;99678.16;4892515;29;20202;-85
2021/01/18 04:25:18;;;;;;;14.70;9.45;;;;;;;3.47;81.13;99673.75;4883922;29;20246;-84
2021/01/18 04:27:55;;;;;;;17.45;10.00;;;;;;;3.55;81.28;99681.53;4906949;29;20258;-84
2021/01/18 04:30:23;;;;;;;17.40;9.50;;;;;;;3.43;81.03;99680.09;4884034;29;20224;-82
2021/01/18 04:33:08;;;;;;;15.15;10.00;;;;;;;3.35;81.50;99679.41;4881756;29;20235;-86
2021/01/18 04:35:37;;;;;;;24.65;10.90;;;;;;;3.27;81.67;99678.75;4887883;29;20233;-86
2021/01/18 04:38:04;;;;;;;16.25;10.60;;;;;;;3.31;82.02;99680.44;4914462;29;20218;-86
2021/01/18 04:40:32;;;;;;;18.90;10.18;;;;;;;3.35;81.48;99686.53;4911460;29;20241;-83
2021/01/18 04:42:59;;;;;;;15.93;10.30;;;;;;;3.35;81.79;99687.38;4900044;29;20225;-83
2021/01/18 04:45:28;;;;;;;15.85;9.65;;;;;;;3.39;81.86;99690.81;4916368;29;20214;-82
2021/01/18 04:47:56;;;;;;;22.95;11.10;;;;;;;3.47;81.21;99687.03;4901061;29;20221;-83
2021/01/18 04:50:24;;;;;;;16.63;10.85;;;;;;;3.41;81.46;99687.22;4901785;29;20233;-84
2021/01/18 04:52:55;;;;;;;18.67;10.30;;;;;;;3.44;81.51;99694.25;4926942;29;20194;-82
2021/01/18 04:55:31;;;;;;;17.08;10.35;;;;;;;3.36;81.47;99689.16;4897961;29;20214;-81
2021/01/18 04:58:14;;;;;;;16.80;10.73;;;;;;;3.39;81.63;99693.50;4916284;29;20245;-81
2021/01/18 05:00:40;;;;;;;20.27;11.10;;;;;;;3.38;81.79;99695.28;4924764;29;20217;-82
2021/01/18 05:03:08;;;;;;;20.58;10.55;;;;;;;3.35;81.23;99684.72;4901885;29;20289;-82
2021/01/18 05:05:56;;;;;;;16.63;10.82;;;;;;;3.31;81.41;99679.56;4916916;29;20256;-83
2021/01/18 05:08:44;;;;;;;15.88;9.98;;;;;;;3.32;81.49;99682.16;4882775;29;20266;-83
2021/01/18 05:11:14;;;;;;;15.52;9.38;;;;;;;3.32;81.35;99686.59;4914731;29;20197;-84
2021/01/18 05:13:41;;;;;;;21.05;11.13;;;;;;;3.32;81.13;99687.50;4880742;29;20293;-84
2021/01/18 05:16:08;;;;;;;17.70;9.32;;;;;;;3.35;81.09;99698.03;4877396;29;20602;-84
2021/01/18 05:18:36;;;;;;;15.80;9.30;;;;;;;3.32;81.07;99698.13;4902390;29;20226;-84
2021/01/18 05:21:05;;;;;;;16.48;9.55;;;;;;;3.47;80.67;99707.47;4898724;29;20229;-82
2021/01/18 05:23:37;;;;;;;16.88;9.63;;;;;;;3.51;79.87;99702.00;4887473;29;20241;-84
2021/01/18 05:26:14;;;;;;;14.27;9.90;;;;;;;3.50;80.04;99700.28;4892679;29;20215;-83
2021/01/18 05:28:44;;;;;;;16.00;9.40;;;;;;;3.39;80.32;99705.00;4920305;29;20284;-84
2021/01/18 05:31:30;;;;;;;17.13;8.85;;;;;;;3.37;80.37;99704.19;4898440;29;20234;-84
2021/01/18 05:33:59;;;;;;;18.63;9.38;;;;;;;3.44;80.56;99697.78;4900136;29;20303;-85
2021/01/18 05:36:39;;;;;;;15.88;10.68;;;;;;;3.40;80.62;99701.44;4873021;29;20238;-83
2021/01/18 05:39:10;;;;;;;16.02;10.18;;;;;;;3.49;80.04;99711.81;4902619;29;20237;-84
2021/01/18 05:41:36;;;;;;;15.13;10.50;;;;;;;3.48;80.35;99712.72;4892061;29;20234;-85
2021/01/18 05:44:04;;;;;;;14.40;9.82;;;;;;;3.40;80.72;99698.78;4903457;29;20288;-84
2021/01/18 05:46:33;;;;;;;16.73;10.45;;;;;;;3.46;80.57;99701.25;4904755;29;20240;-83
2021/01/18 05:49:19;;;;;;;16.27;10.40;;;;;;;3.41;80.80;99703.16;4902984;29;20225;-81
2021/01/18 05:51:53;;;;;;;13.07;9.55;;;;;;;3.35;80.71;99710.47;4901157;29;20346;-81
2021/01/18 05:54:22;;;;;;;20.38;11.43;;;;;;;3.39;81.06;99709.44;4908551;29;20228;-82
2021/01/18 05:56:51;;;;;;;19.48;10.90;;;;;;;3.33;81.05;99699.84;4881612;29;20250;-83
2021/01/18 05:59:22;;;;;;;20.65;10.93;;;;;;;3.36;81.61;99702.44;4888428;29;20203;-82
2021/01/18 06:01:50;;;;;;;16.08;9.45;;;;;;;3.37;81.20;99706.84;4887772;29;20210;-84
2021/01/18 06:04:21;;;;;;;24.25;11.30;;;;;;;3.46;81.16;99709.22;4883599;29;20230;-83
2021/01/18 06:06:56;;;;;;;18.90;11.70;;;;;;;3.34;81.20;99700.75;4892951;29;20305;-83
2021/01/18 06:09:24;;;;;;;18.67;11.35;;;;;;;3.34;81.59;99709.56;4889562;29;20331;-81
2021/01/18 06:11:50;;;;;;;18.95;10.85;;;;;;;3.34;81.77;99704.25;4909259;29;20226;-85
2021/01/18 06:14:18;;;;;;;20.27;11.20;;;;;;;3.31;81.82;99706.13;4905646;29;20214;-85
2021/01/18 06:16:49;;;;;;;16.88;11.70;;;;;;;3.40;81.75;99706.75;4897098;29;20224;-84
2021/01/18 06:19:23;;;;;;;18.30;11.45;;;;;;;3.36;81.52;99718.41;4894108;29;20249;-85
2021/01/18 06:21:49;;;;;;;23.20;11.80;;;;;;;3.40;81.65;99719.19;4886414;29;20237;-85
2021/01/18 06:24:21;;;;;;;22.17;13.05;;;;;;;3.34;81.51;99722.84;4898532;29;20310;-84
2021/01/18 06:26:48;;;;;;;18.85;12.38;;;;;;;3.36;81.76;99726.38;4898940;29;20234;-86
2021/01/18 06:29:42;;;;;;;19.83;12.18;;;;;;;3.40;81.57;99727.16;4883815;29;20615;-85
2021/01/18 06:32:13;;;;;;;19.63;12.35;;;;;;;3.45;81.32;99725.22;4909222;29;20202;-81
2021/01/18 06:34:40;;;;;;;29.98;13.82;;;;;;;3.52;81.00;99732.13;4913946;29;20206;-82
2021/01/18 06:37:19;;;;;;;22.02;13.30;;;;;;;3.52;81.22;99737.44;4916872;29;20305;-82
2021/01/18 06:39:45;;;;;;;24.15;12.75;;;;;;;3.56;81.30;99739.97;4898805;29;20216;-83
2021/01/18 06:42:20;;;;;;;23.80;13.68;;;;;;;3.58;80.81;99746.13;4915784;29;20222;-84
2021/01/18 06:44:46;;;;;;;20.30;12.35;;;;;;;3.58;80.58;99743.47;4914665;29;20217;-82
2021/01/18 06:47:28;;;;;;;26.38;12.10;;;;;;;3.42;80.93;99742.16;4898231;29;20234;-82
2021/01/18 06:50:06;;;;;;;23.88;13.00;;;;;;;3.39;80.94;99749.31;4912503;29;20207;-85
2021/01/18 06:52:34;;;;;;;23.13;13.27;;;;;;;3.42;81.06;99758.09;4895095;29;20232;-83
2021/01/18 06:55:03;;;;;;;24.30;12.32;;;;;;;3.41;81.41;99753.66;4881690;29;20225;-85
2021/01/18 06:58:07;;;;;;;21.23;13.50;;;;;;;3.50;81.50;99756.09;4896049;29;20226;-82
2021/01/18 07:00:39;;;;;;;26.30;13.65;;;;;;;3.53;81.01;99757.81;4880600;29;20801;-82
2021/01/18 07:03:31;;;;;;;24.23;14.25;;;;;;;3.59;81.17;99760.28;4879226;29;20222;-82
2021/01/18 07:06:02;;;;;;;30.40;13.98;;;;;;;3.58;81.29;99754.09;4858254;29;20231;-82
2021/01/18 07:08:40;;;;;;;25.30;14.20;;;;;;;3.50;81.30;99756.09;4868988;29;20621;-81
2021/01/18 07:11:10;;;;;;;27.00;14.55;;;;;;;3.55;81.77;99751.53;4908814;29;20248;-84
2021/01/18 07:13:37;;;;;;;23.10;13.70;;;;;;;3.50;81.70;99750.78;4885738;29;20231;-83
2021/01/18 07:16:11;;;;;;;30.70;15.77;;;;;;;3.64;81.63;99766.34;4897462;29;20226;-83
2021/01/18 07:18:45;;;;;;;28.10;14.20;;;;;;;3.66;81.28;99764.53;4913084;29;20229;-82
2021/01/18 07:21:17;;;;;;;25.13;13.93;;;;;;;3.75;81.43;99762.47;4893037;29;20229;-81
2021/01/18 07:23:53;;;;;;;25.88;12.93;;;;;;;3.62;81.30;99761.09;4886229;29;20235;-82
2021/01/18 07:26:56;;;;;;;28.15;14.27;;;;;;;3.62;81.50;99752.22;4911010;29;20198;-82
2021/01/18 07:29:24;;;;;;;29.20;15.10;;;;;;;3.67;81.65;99766.25;4902155;29;20360;-81
2021/01/18 07:31:55;;;;;;;29.52;14.80;;;;;;;3.72;81.08;99754.56;4897168;29;20197;-83
2021/01/18 07:34:25;;;;;;;25.45;15.68;;;;;;;3.60;81.37;99752.25;4888214;29;20226;-83
2021/01/18 07:36:52;;;;;;;26.27;15.50;;;;;;;3.58;81.95;99755.88;4887366;29;20233;-83
2021/01/18 07:39:46;;;;;;;30.88;14.70;;;;;;;3.57;81.89;99757.66;4902150;29;20225;-81
2021/01/18 07:42:27;;;;;;;29.45;16.17;;;;;;;3.59;81.92;99758.50;4891169;29;20788;-84
2021/01/18 07:45:12;;;;;;;32.92;17.13;;;;;;;3.62;82.11;99763.75;4901066;29;20241;-83
2021/01/18 07:47:54;;;;;;;24.83;15.25;;;;;;;3.64;81.96;99764.56;4906589;29;20230;-83
2021/01/18 07:50:35;;;;;;;27.15;15.57;;;;;;;3.53;81.90;99771.94;4888840;29;20201;-84
2021/01/18 07:53:10;;;;;;;28.98;15.52;;;;;;;3.71;82.02;99770.56;4897070;29;20207;-85
2021/01/18 07:55:37;;;;;;;26.40;15.55;;;;;;;3.69;82.23;99772.41;4897874;29;20732;-84
2021/01/18 07:58:15;;;;;;;29.52;15.68;;;;;;;3.76;81.92;99773.97;4876753;29;20222;-83
2021/01/18 08:00:46;;;;;;;24.70;15.15;;;;;;;3.75;81.59;99788.19;4893194;29;20230;-84
2021/01/18 08:03:12;;;;;;;34.72;16.45;;;;;;;3.71;81.93;99791.84;4886511;29;20232;-83
2021/01/18 08:05:40;;;;;;;29.10;15.90;;;;;;;3.60;82.32;99797.44;4875146;29;20316;-82
2021/01/18 08:08:15;;;;;;;26.85;15.35;;;;;;;3.64;82.56;99804.44;4904864;29;20221;-82
2021/01/18 08:10:58;;;;;;;27.27;16.92;;;;;;;3.74;82.23;99803.28;4898787;29;20226;-84
2021/01/18 08:13:27;;;;;;;26.00;13.18;;;;;;;3.74;81.85;99802.41;4896569;29;20242;-84
2021/01/18 08:15:54;;;;;;;26.02;15.65;;;;;;;3.66;82.31;99804.41;4886334;29;20229;-82
2021/01/18 08:18:25;;;;;;;29.58;15.40;;;;;;;3.70;82.10;99806.94;4906793;29;20225;-84
2021/01/18 08:20:51;;;;;;;26.23;15.68;;;;;;;3.72;82.24;99802.44;4917438;29;20308;-83
2021/01/18 08:23:42;;;;;;;27.33;14.55;;;;;;;3.73;82.05;99795.34;4877307;29;20310;-84
2021/01/18 08:26:23;;;;;;;25.08;14.68;;;;;;;3.76;81.90;99796.13;4906516;29;20198;-82
2021/01/18 08:29:48;;;;;;;25.75;14.13;;;;;;;3.77;81.88;99805.84;4896747;29;20312;-83
2021/01/18 08:32:20;;;;;;;32.75;13.52;;;;;;;3.82;82.06;99806.59;4892193;29;20209;-83
2021/01/18 08:35:05;;;;;;;30.88;16.27;;;;;;;3.84;81.91;99799.44;4920808;29;20197;-83
2021/01/18 08:37:34;;;;;;;28.40;15.40;;;;;;;3.90;81.59;99793.94;4908330;29;20229;-85
2021/01/18 08:40:12;;;;;;;25.85;15.07;;;;;;;3.95;81.34;99797.34;4900120;29;20318;-85
2021/01/18 08:42:40;;;;;;;28.27;13.80;;;;;;;3.93;81.19;99793.84;4881568;29;20222;-82
2021/01/18 08:45:11;;;;;;;25.50;15.88;;;;;;;3.95;81.43;99801.78;4871131;29;20241;-84
2021/01/18 08:47:43;;;;;;;28.50;15.57;;;;;;;3.98;81.33;99802.56;4887168;29;20241;-83
2021/01/18 08:50:16;;;;;;;30.13;15.32;;;;;;;4.07;81.33;99801.44;4891193;29;20789;-85
2021/01/18 08:52:42;;;;;;;26.35;16.35;;;;;;;4.09;81.05;99802.25;4911696;29;20302;-81
2021/01/18 08:55:27;;;;;;;23.38;14.90;;;;;;;4.16;80.84;99803.84;4905115;29;20222;-86
2021/01/18 08:57:55;;;;;;;24.67;14.65;;;;;;;4.11;80.67;99803.97;4925443;29;20237;-84
2021/01/18 09:00:21;;;;;;;26.80;15.07;;;;;;;4.07;81.06;99801.44;4895522;29;20221;-82
2021/01/18 09:02:51;;;;;;;26.38;14.82;;;;;;;4.12;80.86;99803.03;4896360;29;20225;-82
2021/01/18 09:05:19;;;;;;;20.73;13.30;;;;;;;4.13;80.98;99802.16;4900043;29;20206;-83
2021/01/18 09:07:47;;;;;;;23.58;13.10;;;;;;;4.12;80.76;99803.03;4886587;29;20671;-84
2021/01/18 09:10:17;;;;;;;23.30;13.65;;;;;;;4.08;80.90;99805.84;4885206;29;20245;-84
2021/01/18 09:12:45;;;;;;;23.30;13.45;;;;;;;3.94;81.05;99800.06;4855534;29;20254;-83
2021/01/18 09:15:39;;;;;;;25.00;13.80;;;;;;;3.95;81.45;99799.13;4918332;29;20360;-84
2021/01/18 09:18:11;;;;;;;19.90;12.25;;;;;;;3.97;80.91;99800.84;4909596;29;20218;-83
2021/01/18 09:20:44;;;;;;;20.85;12.77;;;;;;;4.09;80.86;99804.91;4899738;29;20265;-83
2021/01/18 09:23:12;;;;;;;24.75;12.45;;;;;;;4.18;80.84;99797.53;4902381;29;20199;-82
2021/01/18 09:26:00;;;;;;;21.15;12.52;;;;;;;4.19;80.05;99794.00;4888670;29;20270;-82
2021/01/18 09:28:27;;;;;;;21.30;12.48;;;;;;;4.12;80.29;99797.72;4885331;29;20331;-84
2021/01/18 09:30:58;;;;;;;21.15;13.07;;;;;;;4.18;80.21;99789.56;4898303;29;20221;-84
2021/01/18 09:33:28;;;;;;;23.70;13.13;;;;;;;4.19;80.47;99782.47;4864572;29;20298;-85
2021/01/18 09:35:54;;;;;;;19.15;11.95;;;;;;;4.15;80.27;99789.66;4890645;29;20222;-84
2021/01/18 09:38:20;;;;;;;22.27;13.02;;;;;;;4.30;80.19;99794.53;4896171;29;20218;-81
2021/01/18 09:40:46;;;;;;;21.08;13.63;;;;;;;4.31;79.89;99796.25;4902054;29;20206;-84
2021/01/18 09:43:21;;;;;;;20.15;12.15;;;;;;;4.28;79.94;99791.03;4896381;29;20230;-84
2021/01/18 09:45:57;;;;;;;24.02;14.07;;;;;;;4.52;79.51;99800.06;4871840;29;20756;-83
2021/01/18 09:48:25;;;;;;;25.90;12.80;;;;;;;4.44;79.18;99802.09;4883520;29;20744;-84
2021/01/18 09:51:06;;;;;;;22.73;13.18;;;;;;;4.39;79.35;99798.69;4870195;29;20235;-83
2021/01/18 09:53:35;;;;;;;27.27;16.25;;;;;;;4.33;80.04;99804.22;4881825;29;20237;-84
2021/01/18 09:56:07;;;;;;;23.17;15.13;;;;;;;4.34;79.89;99803.28;4886116;29;20209;-85
2021/01/18 09:58:36;;;;;;;27.48;14.93;;;;;;;4.32;79.97;99810.44;4895760;29;20227;-85
2021/01/18 10:01:19;;;;;;;24.95;15.02;;;;;;;4.41;79.80;99808.38;4891299;29;20298;-80
2021/01/18 10:04:04;;;;;;;23.83;13.15;;;;;;;4.47;79.33;99802.00;4898210;29;20241;-79
2021/01/18 10:06:37;;;;;;;21.20;13.80;;;;;;;4.36;79.41;99809.47;4902158;29;20542;-79
2021/01/18 10:09:06;;;;;;;23.00;14.23;;;;;;;4.44;79.02;99804.75;4907238;29;20294;-81
2021/01/18 10:11:39;;;;;;;24.98;14.40;;;;;;;4.47;79.66;99808.22;4899869;29;20241;-81
2021/01/18 10:14:32;;;;;;;25.98;14.30;;;;;;;4.53;79.14;99810.69;4899729;29;20206;-81
2021/01/18 10:17:07;;;;;;;25.73;14.05;;;;;;;4.48;78.86;99804.63;4915376;29;20760;-82
2021/01/18 10:19:37;;;;;;;22.92;13.73;;;;;;;4.49;78.98;99803.69;4894461;29;20250;-80
2021/01/18 10:22:14;;;;;;;32.20;16.27;;;;;;;4.47;79.16;99810.88;4877253;29;20264;-81
2021/01/18 10:24:41;;;;;;;24.75;14.55;;;;;;;4.49;79.31;99808.16;4905633;29;20222;-82
2021/01/18 10:27:15;;;;;;;24.77;15.13;;;;;;;4.48;79.39;99801.09;4923869;29;20233;-79
2021/01/18 10:29:42;;;;;;;22.33;15.10;;;;;;;4.50;78.76;99797.44;4924121;29;20294;-80
2021/01/18 10:32:09;;;;;;;22.98;13.85;;;;;;;4.31;79.65;99806.91;4909450;29;20191;-82
2021/01/18 10:34:37;;;;;;;24.50;14.40;;;;;;;4.18;80.02;99800.22;4889552;29;20244;-80
2021/01/18 10:37:19;;;;;;;27.70;13.75;;;;;;;4.14;80.11;99800.34;4910833;29;20245;-80
2021/01/18 10:39:46;;;;;;;25.02;14.95;;;;;;;4.26;79.57;99797.31;4911574;29;20226;-78
2021/01/18 10:42:15;;;;;;;29.05;15.63;;;;;;;4.32;79.66;99798.03;4908941;29;20313;-78
2021/01/18 10:44:56;;;;;;;23.95;15.05;;;;;;;4.47;79.15;99794.91;4910268;29;20226;-79
2021/01/18 10:47:32;;;;;;;23.90;15.07;;;;;;;4.65;78.92;99785.44;4881028;29;20599;-81
2021/01/18 10:50:00;;;;;;;20.08;13.80;;;;;;;4.72;78.54;99787.88;4914641;29;20201;-81
2021/01/18 10:52:34;;;;;;;21.10;12.95;;;;;;;4.76;77.46;99784.19;4911625;29;20230;-82
2021/01/18 10:55:03;;;;;;;18.83;13.13;;;;;;;4.92;77.33;99785.44;4910901;29;20209;-81
2021/01/18 10:57:43;;;;;;;23.05;13.07;;;;;;;4.94;77.06;99793.41;4911595;28;20233;-82
2021/01/18 11:00:10;;;;;;;17.20;12.90;;;;;;;4.76;77.42;99788.66;4895743;29;20277;-82
2021/01/18 11:02:39;;;;;;;20.90;14.43;;;;;;;4.81;77.39;99786.72;4901057;29;20377;-80
2021/01/18 11:05:07;;;;;;;20.58;13.13;;;;;;;4.94;77.55;99786.25;4895409;29;20179;-78
2021/01/18 11:07:35;;;;;;;21.83;13.38;;;;;;;5.09;76.64;99782.22;4899709;29;20313;-80
2021/01/18 11:10:12;;;;;;;24.95;13.20;;;;;;;5.34;76.07;99780.47;4900641;29;20232;-82
2021/01/18 11:12:40;;;;;;;17.65;11.73;;;;;;;5.24;75.64;99785.25;4896062;29;20230;-84
2021/01/18 11:15:09;;;;;;;21.38;12.13;;;;;;;5.24;75.54;99782.56;4903954;29;20244;-84
2021/01/18 11:17:35;;;;;;;22.10;12.35;;;;;;;5.19;75.95;99787.19;4891255;29;20234;-84
2021/01/18 11:20:07;;;;;;;18.55;11.75;;;;;;;5.06;76.29;99780.53;4904916;29;20300;-83
2021/01/18 11:22:33;;;;;;;17.35;11.80;;;;;;;4.90;76.07;99783.75;4894202;29;20225;-84
2021/01/18 11:24:59;;;;;;;20.45;11.73;;;;;;;4.92;76.79;99780.13;4896294;29;20221;-82
2021/01/18 11:27:26;;;;;;;16.10;11.70;;;;;;;5.09;76.53;99774.22;4895822;29;20891;-79
2021/01/18 11:29:52;;;;;;;14.43;10.95;;;;;;;4.93;76.53;99765.00;4893717;29;20285;-82
2021/01/18 11:32:18;;;;;;;16.75;11.68;;;;;;;4.87;76.91;99766.06;4880749;29;21887;-82
2021/01/18 11:34:45;;;;;;;16.75;11.50;;;;;;;5.00;77.09;99763.88;4899372;29;20734;-83
2021/01/18 11:37:11;;;;;;;21.00;11.68;;;;;;;5.05;76.93;99764.56;4890148;29;22404;-84
2021/01/18 11:39:38;;;;;;;18.63;11.98;;;;;;;5.03;76.83;99761.09;4892964;29;20225;-83
2021/01/18 11:42:06;;;;;;;20.30;12.60;;;;;;;5.16;76.58;99757.97;4892207;29;20748;-81
2021/01/18 11:44:33;;;;;;;23.30;11.38;;;;;;;5.21;76.13;99755.16;4881577;29;20226;-81
2021/01/18 11:47:00;;;;;;;16.10;9.85;;;;;;;5.36;75.72;99758.16;4894791;29;20257;-82
2021/01/18 11:49:27;;;;;;;17.80;11.25;;;;;;;5.44;75.49;99757.91;4891347;29;20234;-83
2021/01/18 11:51:57;;;;;;;16.08;10.00;;;;;;;5.29;75.43;99748.63;4898706;29;20320;-82